Clifton, Virginia
Current Conditions -  °F | °C
As of 10:45 AM on Wednesday 22 Oct 2014 (Local Time) from KHEF Reporting Station
Overcast Overcast  
Wind Chill: 55°   Ceiling: 3600
Heat Index: 55°   Visibility: 10mi
Dew Point: 54°   Wind: 13mph
Humidity: 94%   Direction: 340°NNW
Pressure: 29.95"   Gusts: 23mph
Location:  38.78°N, 77.39°W
Report Text: KHEF 221445Z 34011G20KT 10SM OVC036 13/12 A2995
Loading
Personal Weather Stations






























Interactive Weather Map
Tropical Storm Tracking
New forecast layout! Learn more

10-Day Weather Forecast

Advertisements
Track Severe Weather on mobile